National Weather Service United States Department of Commerce

Stormy weather pattern for the Western U.S. this week

A series of Pacific weather systems will bring several rounds of precipitation and wind to the western U.S. this week. Several inches of rain could fall in portions of WA, OR and CA, especially in the coastal ranges and foothills. Snow is forecast in the higher mountains. In addition, winds will be strong, especially in mountainous areas, which could pose a hazard to high-profile vehicles. Read More >

ZTL Weather Bulletin
Prepared: 10/25/2016 12:38 PM by: RW valid for 9 hours
High pressure will dominate ZTL with VFR conditions under occasional SCT/BKN cirrus clouds, mostly over N ZTL. Surface winds will be northeast to southeast at 3-12kts. Flight Hazards: None expected. Altimeters will remain above 29.92ins over all ZTL. CIGS/VIS below 050/5SM are not expected in ZTL.

Restricted Area Convection: R2102...None. R3002...None. R3004...None.
FTUS31 KATL 251933 AAA
KATL 251931Z 2520/2624 09007KT P6SM SCT250
     FM252300 09005KT P6SM SKC
     FM261400 12009KT P6SM FEW040 SCT250

Remark: NONE.
FTUS80 KCLT 251721 RRD
KCLT 251720Z 2518/2618 07005KT P6SM FEW250
     FM252100 12003KT P6SM FEW250
     FM260900 06003KT P6SM SKC
     FM261600 13005KT P6SM FEW250

Remark: NONE.
12-18 Hour Forecast Map
Weather Map
Convective Gate Forecast Convective Gate Forecast
Icing Gate Forecast Icing Gate Forecast